Ruckersville, Virginia
Current Conditions -  °F | °C
As of 1:53 PM on Monday 20 Oct 2014 (Local Time) from KCHO Reporting Station
Clear Clear  
Wind Chill: 64°   Ceiling: Unl
Heat Index: 64°   Visibility: 10mi
Dew Point: 46°   Wind: 15mph
Humidity: 52%   Direction: 190°S
Pressure: 29.98"   Gusts: NA
Location:  38.23°N, 78.37°W
Report Text: KCHO 201753Z 19013KT 10SM CLR 18/08 A2998 RMK AO2 SLP151 T01780078 10183 20039 58036
Loading
Personal Weather Stations






























Interactive Weather Map New forecast layout! Learn more

10-Day Weather Forecast

Advertisements
Track Severe Weather on mobile